Ortonville, Minnesota
Current Conditions -  °F | °C
As of 2:29 PM on Friday 21 Nov 2014 (Local Time) from KVVV Reporting Station
Clear Clear  
Wind Chill: 24°   Ceiling: Unl
Heat Index: 34°   Visibility: 10mi
Dew Point: 25°   Wind: 14mph
Humidity: 70%   Direction: 180°S
Pressure: 29.84"   Gusts: NA
Location:  45.3°N, 96.44°W
Report Text: KVVV 212029Z AUTO 18012KT 10SM CLR 01/M04 A2984 RMK AO2
Loading
Personal Weather Stations






























Interactive Weather Map New forecast layout! Learn more

10-Day Weather Forecast

Advertisements
Track Severe Weather on mobile